Time;durP1;ratioP1;P1;durP2;ratioP2;P2;SDS_P1;SDS_P2;PMS_P1;PMS_P2;Temp;Humidity;BMP_temperature;BMP_pressure;BME280_temperature;BME280_humidity;BME280_pressure;Samples;Min_cycle;Max_cycle;Signal;HPM_P1;HPM_P2
2021/11/06 00:01:11;;;;;;;2.30;1.73;;;;;;;9.43;79.11;102200.13;6134748;28;20235;-64
2021/11/06 00:04:32;;;;;;;5.07;2.33;;;;;;;9.37;78.64;102200.03;6136780;28;20230;-63
2021/11/06 00:07:54;;;;;;;7.10;2.33;;;;;;;9.77;77.67;102191.19;6136582;28;20322;-64
2021/11/06 00:11:15;;;;;;;6.53;1.90;;;;;;;9.37;78.62;102198.28;6137218;28;20573;-64
2021/11/06 00:14:36;;;;;;;7.67;3.03;;;;;;;9.51;78.29;102190.72;6135065;29;20216;-64
2021/11/06 00:17:57;;;;;;;3.43;2.03;;;;;;;9.58;77.64;102195.19;6135790;28;20279;-64
2021/11/06 00:21:18;;;;;;;5.80;2.57;;;;;;;9.71;76.95;102198.84;6135210;28;20243;-63
2021/11/06 00:24:43;;;;;;;6.20;2.27;;;;;;;9.75;76.32;102202.38;6136395;28;20228;-64
2021/11/06 00:28:07;;;;;;;6.27;1.93;;;;;;;9.57;77.08;102219.44;6136097;28;20227;-64
2021/11/06 00:31:30;;;;;;;4.10;1.97;;;;;;;9.57;77.01;102218.56;6137553;28;20231;-64
2021/11/06 00:34:54;;;;;;;6.40;2.23;;;;;;;9.32;78.06;102217.25;6138398;28;20219;-64
2021/11/06 00:38:17;;;;;;;3.67;2.03;;;;;;;9.47;78.00;102214.94;6136709;28;20235;-64
2021/11/06 00:41:39;;;;;;;3.23;2.17;;;;;;;9.52;77.69;102223.69;6134197;28;20235;-64
2021/11/06 00:45:02;;;;;;;4.33;1.87;;;;;;;9.35;77.58;102231.19;6132507;29;20215;-64
2021/11/06 00:48:23;;;;;;;5.77;1.97;;;;;;;9.34;77.95;102231.16;6132243;28;20239;-64
2021/11/06 00:51:44;;;;;;;3.97;2.23;;;;;;;9.31;77.95;102234.56;6132297;28;20258;-63
2021/11/06 00:55:06;;;;;;;5.60;2.17;;;;;;;9.34;77.83;102231.16;6130458;28;20644;-64
2021/11/06 00:58:31;;;;;;;7.30;2.40;;;;;;;9.52;77.30;102228.91;6132161;28;20227;-65
2021/11/06 01:01:52;;;;;;;5.30;2.20;;;;;;;9.35;78.15;102223.38;6129482;28;20247;-64
2021/11/06 01:05:15;;;;;;;4.40;1.77;;;;;;;9.15;77.98;102236.00;6129761;28;20211;-65
2021/11/06 01:08:36;;;;;;;7.07;1.80;;;;;;;9.45;76.82;102233.09;6131822;28;20612;-65
2021/11/06 01:11:57;;;;;;;5.63;1.93;;;;;;;9.33;77.76;102225.06;6130417;28;20231;-64
2021/11/06 01:15:20;;;;;;;5.27;2.57;;;;;;;9.71;76.21;102234.41;6132878;29;20207;-64
2021/11/06 01:18:41;;;;;;;8.30;3.10;;;;;;;9.32;78.21;102228.50;6130364;28;20231;-64
2021/11/06 01:22:07;;;;;;;6.33;2.13;;;;;;;9.29;78.64;102217.22;6131375;28;20317;-62
2021/11/06 01:25:28;;;;;;;5.93;2.00;;;;;;;9.23;78.97;102229.22;6129832;28;20338;-63
2021/11/06 01:28:49;;;;;;;4.30;1.60;;;;;;;9.40;77.51;102221.75;6126981;28;20231;-65
2021/11/06 01:32:11;;;;;;;9.50;2.53;;;;;;;9.48;77.25;102224.50;6127537;28;20232;-64
2021/11/06 01:35:32;;;;;;;3.10;1.60;;;;;;;9.30;77.99;102229.34;6129070;28;20570;-65
2021/11/06 01:38:53;;;;;;;4.07;1.70;;;;;;;9.40;76.96;102231.25;6125345;28;20239;-65
2021/11/06 01:42:15;;;;;;;12.43;3.60;;;;;;;9.62;76.88;102223.00;6127348;28;21366;-64
2021/11/06 01:45:36;;;;;;;5.93;1.70;;;;;;;9.36;77.66;102216.44;6127782;29;20216;-64
2021/11/06 01:48:58;;;;;;;8.03;2.50;;;;;;;9.25;78.00;102222.34;6128365;28;20313;-64
2021/11/06 01:52:19;;;;;;;5.50;1.67;;;;;;;9.05;77.80;102226.25;6126699;28;20513;-64
2021/11/06 01:55:40;;;;;;;3.23;1.77;;;;;;;9.09;78.25;102219.41;6128710;28;20230;-65
2021/11/06 01:59:01;;;;;;;3.97;1.77;;;;;;;9.18;78.15;102224.78;6130583;29;20212;-65
2021/11/06 02:02:22;;;;;;;7.87;1.97;;;;;;;9.19;78.70;102227.44;6129637;28;20633;-64
2021/11/06 02:05:45;;;;;;;6.77;2.17;;;;;;;9.30;78.14;102218.94;6132191;28;20223;-64
2021/11/06 02:09:06;;;;;;;5.80;1.83;;;;;;;9.39;77.15;102220.00;6129856;28;20609;-64
2021/11/06 02:12:28;;;;;;;4.27;1.93;;;;;;;9.12;78.59;102219.47;6128779;28;20361;-65
2021/11/06 02:15:50;;;;;;;5.63;1.60;;;;;;;9.29;77.67;102218.06;6130078;28;20196;-64
2021/11/06 02:19:11;;;;;;;4.43;2.50;;;;;;;9.01;78.33;102227.06;6129676;29;20632;-65
2021/11/06 02:22:34;;;;;;;5.73;2.00;;;;;;;9.13;78.89;102211.72;6130759;28;20239;-64
2021/11/06 02:25:55;;;;;;;6.83;2.13;;;;;;;9.09;78.91;102217.66;6130734;28;20709;-64
2021/11/06 02:29:17;;;;;;;3.63;1.73;;;;;;;9.08;78.91;102223.72;6131144;29;20196;-65
2021/11/06 02:32:38;;;;;;;2.90;1.53;;;;;;;9.07;78.89;102227.16;6130304;28;20333;-63
2021/11/06 02:36:02;;;;;;;4.93;1.80;;;;;;;9.34;78.00;102218.16;6130321;28;20219;-65
2021/11/06 02:39:24;;;;;;;12.07;2.47;;;;;;;9.29;77.69;102228.47;6131723;28;20748;-65
2021/11/06 02:42:45;;;;;;;4.33;1.60;;;;;;;9.11;78.63;102226.41;6132427;28;20235;-64
2021/11/06 02:46:09;;;;;;;4.57;2.07;;;;;;;9.05;78.98;102229.75;6135249;28;20224;-65
2021/11/06 02:49:30;;;;;;;6.93;2.13;;;;;;;8.86;79.45;102230.25;6132727;28;20219;-64
2021/11/06 02:52:51;;;;;;;3.63;2.30;;;;;;;9.01;78.58;102227.06;6136032;28;20582;-64
2021/11/06 02:56:13;;;;;;;4.37;1.43;;;;;;;9.04;78.68;102229.72;6133218;28;20227;-64
2021/11/06 02:59:34;;;;;;;6.43;2.17;;;;;;;9.07;78.20;102229.75;6130244;28;20203;-65
2021/11/06 03:02:56;;;;;;;6.10;2.00;;;;;;;9.07;78.93;102225.47;6132613;28;20239;-63
2021/11/06 03:06:18;;;;;;;4.67;2.33;;;;;;;9.08;79.19;102231.53;6133439;28;20235;-64
2021/11/06 03:09:39;;;;;;;9.83;2.87;;;;;;;8.91;79.81;102228.59;6134332;28;20606;-65
2021/11/06 03:13:02;;;;;;;3.93;1.70;;;;;;;8.98;79.59;102221.81;6134360;28;20243;-65
2021/11/06 03:16:25;;;;;;;5.27;2.33;;;;;;;8.96;81.19;102224.38;6132366;28;20329;-64
2021/11/06 03:19:46;;;;;;;3.40;2.00;;;;;;;8.88;81.87;102231.13;6130727;28;20204;-64
2021/11/06 03:23:07;;;;;;;5.20;2.43;;;;;;;8.74;83.25;102220.44;6132225;28;20580;-64
2021/11/06 03:26:28;;;;;;;7.50;3.23;;;;;;;8.77;83.13;102224.84;6130799;28;20603;-65
2021/11/06 03:29:50;;;;;;;4.83;2.03;;;;;;;8.73;82.51;102215.25;6134203;29;20242;-65
2021/11/06 03:33:13;;;;;;;5.40;3.73;;;;;;;8.88;82.76;102212.97;6133417;28;20625;-65
2021/11/06 03:36:34;;;;;;;7.53;3.20;;;;;;;8.60;83.23;102208.91;6131983;28;20258;-64
2021/11/06 03:39:55;;;;;;;4.27;2.23;;;;;;;8.73;83.15;102202.25;6134888;28;20200;-64
2021/11/06 03:43:17;;;;;;;3.83;2.60;;;;;;;8.74;82.45;102207.44;6133831;28;20247;-63
2021/11/06 03:46:39;;;;;;;6.07;3.07;;;;;;;8.81;82.32;102209.34;6133911;28;20243;-64
2021/11/06 03:50:00;;;;;;;5.70;3.27;;;;;;;8.99;81.12;102219.22;6134312;29;20195;-64
2021/11/06 03:53:23;;;;;;;4.90;3.20;;;;;;;8.86;81.41;102212.06;6134783;28;20802;-64
2021/11/06 03:56:44;;;;;;;5.93;3.53;;;;;;;8.70;81.52;102208.22;6131887;28;20239;-64
2021/11/06 04:00:06;;;;;;;4.97;2.90;;;;;;;9.05;80.38;102208.06;6134383;29;20200;-64
2021/11/06 04:03:29;;;;;;;4.80;3.20;;;;;;;8.75;81.01;102209.22;6131384;28;20231;-64
2021/11/06 04:06:50;;;;;;;3.83;2.90;;;;;;;8.89;81.32;102201.69;6132453;28;20644;-64
2021/11/06 04:10:12;;;;;;;7.37;4.10;;;;;;;8.62;80.81;102202.88;6133924;28;20215;-64
2021/11/06 04:13:33;;;;;;;5.20;2.93;;;;;;;9.12;79.84;102203.88;6388787;23;20239;-64
2021/11/06 04:16:56;;;;;;;6.00;3.00;;;;;;;8.69;80.94;102198.72;6126955;28;20235;-64
2021/11/06 04:20:18;;;;;;;5.20;3.67;;;;;;;8.73;80.78;102210.03;6129540;28;20601;-64
2021/11/06 04:23:40;;;;;;;5.03;3.37;;;;;;;9.02;80.44;102224.50;6128045;28;20239;-64
2021/11/06 04:27:04;;;;;;;11.27;3.60;;;;;;;9.21;79.78;102215.34;6124825;28;20244;-64
2021/11/06 04:30:26;;;;;;;6.00;4.17;;;;;;;8.93;80.79;102226.03;6126270;28;20526;-65
2021/11/06 04:33:46;;;;;;;6.30;3.50;;;;;;;8.81;81.28;102230.13;6122973;28;20239;-65
2021/11/06 04:37:09;;;;;;;6.70;3.90;;;;;;;8.81;81.32;102222.31;6125354;28;20574;-64
2021/11/06 04:40:30;;;;;;;9.03;4.10;;;;;;;8.84;80.65;102224.09;6123549;28;20212;-65
2021/11/06 04:43:50;;;;;;;6.93;4.13;;;;;;;8.98;81.01;102219.22;6121679;28;20523;-64
2021/11/06 04:47:12;;;;;;;7.17;5.00;;;;;;;9.07;80.21;102221.97;6125145;28;20242;-64
2021/11/06 04:50:33;;;;;;;7.20;4.87;;;;;;;8.79;80.98;102223.16;6125884;28;20586;-64
2021/11/06 04:53:56;;;;;;;6.10;4.97;;;;;;;9.00;80.88;102238.31;6124502;28;20570;-64
2021/11/06 04:57:17;;;;;;;5.50;4.90;;;;;;;8.85;81.69;102237.13;6125341;28;20227;-64
2021/11/06 05:00:38;;;;;;;8.13;6.03;;;;;;;8.92;81.77;102239.84;6125268;28;20204;-65
2021/11/06 05:03:59;;;;;;;5.70;5.27;;;;;;;9.09;81.08;102241.06;6123881;28;20219;-65
2021/11/06 05:07:20;;;;;;;6.97;5.40;;;;;;;8.76;81.54;102236.97;6124077;28;20266;-64
2021/11/06 05:10:42;;;;;;;5.77;4.80;;;;;;;8.74;81.85;102237.75;6130998;28;20208;-64
2021/11/06 05:14:05;;;;;;;6.07;5.33;;;;;;;9.02;80.90;102234.00;6130017;28;20310;-64
2021/11/06 05:17:26;;;;;;;7.17;5.40;;;;;;;9.11;81.11;102234.22;6129613;28;20302;-64
2021/11/06 05:20:47;;;;;;;6.33;5.37;;;;;;;8.78;81.36;102240.47;6131131;28;20799;-64
2021/11/06 05:24:10;;;;;;;7.93;5.53;;;;;;;9.00;81.38;102233.09;6129758;28;20227;-64
2021/11/06 05:27:33;;;;;;;9.00;5.67;;;;;;;8.98;81.48;102233.06;6130214;28;20239;-64
2021/11/06 05:30:54;;;;;;;6.57;5.73;;;;;;;9.13;81.11;102236.81;6129883;28;20227;-64
2021/11/06 05:34:16;;;;;;;8.03;6.07;;;;;;;8.69;82.02;102227.28;6128954;28;20232;-64
2021/11/06 05:37:37;;;;;;;10.87;7.70;;;;;;;8.75;82.46;102224.81;6130721;28;20900;-64
2021/11/06 05:40:57;;;;;;;8.27;7.47;;;;;;;8.98;82.02;102229.59;6129350;28;20219;-64
2021/11/06 05:44:20;;;;;;;9.27;8.20;;;;;;;8.78;82.47;102234.38;6124468;28;20239;-64
2021/11/06 05:47:40;;;;;;;8.20;7.40;;;;;;;9.11;81.31;102238.50;6128460;28;21244;-65
2021/11/06 05:51:01;;;;;;;9.67;7.47;;;;;;;8.73;82.41;102231.69;6130599;28;21299;-65
2021/11/06 05:54:22;;;;;;;8.47;7.67;;;;;;;8.80;82.12;102225.78;6129372;28;20541;-64
2021/11/06 05:57:44;;;;;;;12.93;7.83;;;;;;;8.71;82.03;102216.94;6129378;28;20227;-64
2021/11/06 06:01:06;;;;;;;10.70;7.50;;;;;;;8.79;81.42;102224.03;6130291;28;20595;-64
2021/11/06 06:04:27;;;;;;;11.67;8.47;;;;;;;9.01;80.72;102225.31;6131002;28;20204;-63
2021/11/06 06:07:48;;;;;;;11.47;8.63;;;;;;;8.73;81.59;102226.50;6128983;28;20231;-64
2021/11/06 06:11:09;;;;;;;11.43;8.10;;;;;;;8.78;81.46;102244.75;6127706;28;20204;-65
2021/11/06 06:14:30;;;;;;;11.47;7.40;;;;;;;8.98;80.83;102232.22;6128002;28;20225;-65
2021/11/06 06:17:53;;;;;;;10.23;9.03;;;;;;;8.81;80.95;102224.94;6132065;28;20239;-63
2021/11/06 06:21:15;;;;;;;8.73;7.83;;;;;;;8.88;81.07;102228.53;6134095;28;20234;-65
2021/11/06 06:24:36;;;;;;;10.20;7.43;;;;;;;8.89;81.14;102229.41;6134388;28;20570;-65
2021/11/06 06:27:57;;;;;;;10.63;7.23;;;;;;;8.80;80.94;102233.59;6133252;28;20232;-65
2021/11/06 06:31:18;;;;;;;7.63;6.83;;;;;;;8.77;80.95;102233.50;6132425;28;20235;-64
2021/11/06 06:34:40;;;;;;;10.90;8.27;;;;;;;8.84;80.89;102238.00;6135346;28;20215;-65
2021/11/06 06:38:04;;;;;;;9.87;8.93;;;;;;;8.93;80.12;102245.09;6132991;28;20239;-64
2021/11/06 06:41:24;;;;;;;11.00;8.33;;;;;;;8.79;80.84;102243.94;6130564;28;20322;-64
2021/11/06 06:44:46;;;;;;;10.07;8.73;;;;;;;8.96;79.85;102244.28;6128195;28;20307;-64
2021/11/06 06:48:06;;;;;;;10.97;7.33;;;;;;;8.66;81.80;102271.34;6129265;28;20236;-65
2021/11/06 06:51:29;;;;;;;8.33;7.50;;;;;;;8.62;81.78;102248.75;6126841;28;20227;-65
2021/11/06 06:54:50;;;;;;;10.27;9.20;;;;;;;8.71;81.10;102254.16;6129368;28;20763;-64
2021/11/06 06:58:12;;;;;;;10.33;9.33;;;;;;;8.92;81.06;102260.63;6129005;28;20235;-65
2021/11/06 07:01:33;;;;;;;10.10;9.07;;;;;;;8.80;80.60;102263.84;6123867;28;20314;-64
2021/11/06 07:04:54;;;;;;;17.40;10.00;;;;;;;8.64;80.97;102273.03;6126991;28;20234;-64
2021/11/06 07:08:16;;;;;;;12.13;9.80;;;;;;;8.78;80.65;102276.84;6126483;28;20239;-64
2021/11/06 07:11:37;;;;;;;12.73;10.30;;;;;;;8.73;81.27;102286.22;6126774;28;20235;-65
2021/11/06 07:14:58;;;;;;;11.33;10.03;;;;;;;8.91;80.67;102282.28;6126987;28;20222;-65
2021/11/06 07:18:19;;;;;;;12.87;10.03;;;;;;;8.90;80.40;102277.91;6127152;28;20223;-65
2021/11/06 07:21:40;;;;;;;13.13;10.20;;;;;;;8.93;80.49;102270.19;6130022;28;20588;-64
2021/11/06 07:25:05;;;;;;;14.20;10.67;;;;;;;8.81;80.90;102278.59;6129876;28;20659;-65
2021/11/06 07:28:26;;;;;;;13.60;11.80;;;;;;;9.02;80.11;102271.25;6130004;28;20232;-65
2021/11/06 07:31:47;;;;;;;15.93;11.73;;;;;;;9.04;79.25;102279.97;6129556;28;20239;-64
2021/11/06 07:35:09;;;;;;;12.87;11.57;;;;;;;8.99;80.76;102280.72;6127520;28;20310;-65
2021/11/06 07:38:30;;;;;;;16.53;12.10;;;;;;;8.97;80.03;102272.88;6124961;28;20228;-65
2021/11/06 07:41:52;;;;;;;15.70;13.40;;;;;;;9.12;80.19;102280.13;6127040;28;20235;-65
2021/11/06 07:45:16;;;;;;;18.30;16.33;;;;;;;9.07;79.93;102279.13;6128203;28;20521;-64
2021/11/06 07:48:37;;;;;;;14.80;13.40;;;;;;;8.89;80.19;102278.78;6124681;28;20247;-64
2021/11/06 07:51:59;;;;;;;18.70;15.60;;;;;;;8.99;80.11;102291.97;6123777;28;21681;-65
2021/11/06 07:55:20;;;;;;;19.17;16.07;;;;;;;8.85;81.37;102298.63;6125164;28;20231;-65
2021/11/06 07:58:42;;;;;;;19.57;17.47;;;;;;;8.77;80.96;102287.19;6123479;28;20259;-65
2021/11/06 08:02:04;;;;;;;21.77;17.90;;;;;;;8.98;80.48;102286.78;6124575;28;20336;-65
2021/11/06 08:05:25;;;;;;;20.70;18.30;;;;;;;9.23;79.54;102276.03;6129315;28;20241;-65
2021/11/06 08:08:45;;;;;;;25.83;20.33;;;;;;;8.90;81.25;102276.22;6128369;28;20231;-65
2021/11/06 08:12:07;;;;;;;23.17;19.93;;;;;;;9.06;81.00;102251.41;6127762;28;20235;-64
2021/11/06 08:15:30;;;;;;;25.23;22.63;;;;;;;8.91;80.88;102259.75;6129316;28;20298;-64
2021/11/06 08:18:51;;;;;;;22.20;19.77;;;;;;;8.93;80.77;102265.88;6130471;28;20223;-65
2021/11/06 08:22:13;;;;;;;29.77;21.97;;;;;;;9.05;80.68;102262.66;6124566;28;20250;-64
2021/11/06 08:25:34;;;;;;;23.57;19.70;;;;;;;9.14;80.08;102265.44;6122299;28;20204;-64
2021/11/06 08:28:54;;;;;;;23.33;21.03;;;;;;;9.66;79.17;102260.34;6124221;28;20846;-64
2021/11/06 08:32:17;;;;;;;27.77;23.10;;;;;;;9.18;80.54;102272.44;6126170;28;20250;-65
2021/11/06 08:35:38;;;;;;;29.17;23.53;;;;;;;9.13;80.75;102268.91;6125171;28;20203;-65
2021/11/06 08:38:59;;;;;;;26.03;23.30;;;;;;;9.08;80.80;102283.50;6126733;28;20546;-64
2021/11/06 08:42:20;;;;;;;26.23;23.33;;;;;;;9.59;79.19;102259.34;6127418;28;20263;-64
2021/11/06 08:45:41;;;;;;;26.13;22.60;;;;;;;9.13;80.39;102274.09;6126529;28;20196;-65
2021/11/06 08:49:03;;;;;;;29.57;24.43;;;;;;;8.98;81.04;102278.97;6117997;28;20224;-65
2021/11/06 08:52:24;;;;;;;25.43;22.83;;;;;;;9.21;80.37;102282.91;6123455;28;20285;-65
2021/11/06 08:55:45;;;;;;;26.17;23.57;;;;;;;9.24;81.13;102277.75;6128668;28;20211;-64
2021/11/06 08:59:06;;;;;;;28.27;25.37;;;;;;;9.30;81.12;102276.13;6130067;28;20312;-65
2021/11/06 09:02:27;;;;;;;28.87;25.83;;;;;;;9.35;80.71;102274.50;6128369;28;20266;-65
2021/11/06 09:05:52;;;;;;;26.77;24.10;;;;;;;9.44;79.94;102265.16;6127915;28;20219;-64
2021/11/06 09:09:16;;;;;;;29.63;26.00;;;;;;;9.36;79.98;102258.91;6127629;28;20231;-64
2021/11/06 09:12:37;;;;;;;30.70;24.23;;;;;;;9.62;79.40;102264.63;6127819;28;20235;-65
2021/11/06 09:15:59;;;;;;;28.17;25.13;;;;;;;9.71;79.51;102248.28;6123490;28;20204;-64
2021/11/06 09:19:20;;;;;;;28.77;24.73;;;;;;;9.71;78.93;102257.81;6123318;28;20515;-65
2021/11/06 09:22:42;;;;;;;26.73;23.87;;;;;;;9.88;78.71;102265.91;6119630;28;20232;-65
2021/11/06 09:26:04;;;;;;;26.10;23.37;;;;;;;9.37;79.65;102270.22;6120472;28;20208;-65
2021/11/06 09:29:25;;;;;;;27.67;25.03;;;;;;;9.68;78.99;102273.38;6118128;28;20244;-62
2021/11/06 09:32:46;;;;;;;25.83;23.23;;;;;;;9.51;79.34;102273.94;6124005;28;20259;-62
2021/11/06 09:36:07;;;;;;;26.50;23.90;;;;;;;9.43;79.56;102278.13;6118728;28;20207;-63
2021/11/06 09:39:30;;;;;;;27.57;25.00;;;;;;;9.98;77.83;102278.22;6121051;28;20220;-63
2021/11/06 09:42:51;;;;;;;28.63;23.20;;;;;;;9.55;79.19;102273.16;6126263;28;20223;-63
2021/11/06 09:46:13;;;;;;;27.03;23.20;;;;;;;9.39;79.85;102281.53;6123036;28;20252;-62
2021/11/06 09:49:34;;;;;;;26.07;23.80;;;;;;;9.73;78.69;102269.13;6123458;28;20242;-62
2021/11/06 09:52:56;;;;;;;24.87;22.57;;;;;;;9.69;78.77;102269.91;6133148;28;20234;-63
2021/11/06 09:56:21;;;;;;;25.53;22.93;;;;;;;9.95;78.01;102265.19;6125424;28;20235;-63
2021/11/06 09:59:42;;;;;;;31.90;24.10;;;;;;;9.49;79.41;102278.25;6123803;28;20207;-63
2021/11/06 10:03:03;;;;;;;25.73;23.33;;;;;;;9.78;79.14;102263.16;6128295;28;20239;-64
2021/11/06 10:06:25;;;;;;;28.87;25.07;;;;;;;9.72;78.82;102255.25;6125840;28;20251;-63
2021/11/06 10:10:02;;;;;;;25.30;22.80;;;;;;;9.99;77.88;102262.66;6125633;28;20491;-63
2021/11/06 10:13:25;;;;;;;25.17;22.83;;;;;;;9.70;78.73;102256.09;6126715;28;20246;-63
2021/11/06 10:16:51;;;;;;;28.20;23.27;;;;;;;9.88;78.20;102253.78;6123023;28;20321;-62
2021/11/06 10:20:21;;;;;;;24.17;21.73;;;;;;;10.19;77.14;102244.72;6124318;28;20196;-63
2021/11/06 10:23:43;;;;;;;25.63;23.00;;;;;;;9.92;78.37;102241.69;6125268;28;20239;-63
2021/11/06 10:27:14;;;;;;;30.13;22.43;;;;;;;10.12;78.04;102247.22;6121088;28;20617;-63
2021/11/06 10:30:38;;;;;;;25.60;22.90;;;;;;;10.20;78.81;102248.22;6123889;28;20236;-63
2021/11/06 10:34:11;;;;;;;27.37;24.83;;;;;;;10.00;78.71;102238.38;6125489;28;20231;-63
2021/11/06 10:37:32;;;;;;;28.37;25.73;;;;;;;9.90;78.70;102243.41;6119990;28;20234;-64
2021/11/06 10:40:56;;;;;;;27.10;24.40;;;;;;;9.97;78.39;102232.25;6118075;28;20219;-63
2021/11/06 10:44:19;;;;;;;26.93;24.10;;;;;;;10.15;77.46;102234.25;6118671;28;20603;-64
2021/11/06 10:47:54;;;;;;;27.57;24.80;;;;;;;10.25;77.52;102226.63;6118283;28;20640;-63
2021/11/06 10:51:15;;;;;;;25.80;23.33;;;;;;;9.80;78.33;102222.44;6125059;28;20362;-63
2021/11/06 10:55:00;;;;;;;27.87;25.10;;;;;;;9.94;78.34;102225.25;6125543;28;20207;-61
2021/11/06 10:58:24;;;;;;;26.17;23.50;;;;;;;10.03;78.21;102224.53;6118159;28;21600;-64
2021/11/06 11:01:47;;;;;;;25.47;22.77;;;;;;;10.17;78.82;102217.78;6122559;28;20243;-64
2021/11/06 11:08:44;;;;;;;27.27;24.33;;;;;;;10.13;78.51;102208.19;6269802;27;20810;-65
2021/11/06 11:12:15;;;;;;;25.37;22.93;;;;;;;10.02;78.67;102213.25;6257604;28;20239;-65
2021/11/06 11:15:37;;;;;;;26.83;24.10;;;;;;;10.08;77.83;102201.16;6254338;28;20688;-64
2021/11/06 11:19:02;;;;;;;24.70;22.30;;;;;;;10.18;77.83;102203.06;6227703;28;20220;-63
2021/11/06 11:22:29;;;;;;;27.37;24.70;;;;;;;10.23;77.42;102185.78;6228821;28;20232;-63
2021/11/06 11:25:52;;;;;;;26.57;23.87;;;;;;;10.09;77.75;102188.19;6221876;28;20573;-63
2021/11/06 11:29:20;;;;;;;27.10;24.33;;;;;;;10.23;77.65;102183.16;6228896;28;20220;-64
2021/11/06 11:32:41;;;;;;;28.80;23.83;;;;;;;10.20;78.09;102181.41;6242407;28;20842;-63
2021/11/06 11:36:02;;;;;;;26.63;23.90;;;;;;;10.14;77.06;102173.50;6256492;28;20655;-63
2021/11/06 11:39:26;;;;;;;27.37;24.53;;;;;;;9.83;78.16;102172.19;6245974;28;20555;-63
2021/11/06 11:42:59;;;;;;;23.67;20.90;;;;;;;9.75;79.30;102187.69;6239019;28;20228;-63
2021/11/06 11:46:28;;;;;;;27.37;24.60;;;;;;;10.17;78.02;102177.88;6232698;28;20795;-64
2021/11/06 11:49:52;;;;;;;26.13;23.33;;;;;;;10.07;78.47;102183.81;6248687;28;20228;-63
2021/11/06 11:53:23;;;;;;;25.20;22.87;;;;;;;10.10;78.18;102163.03;6227248;28;20734;-64
2021/11/06 11:56:44;;;;;;;26.73;24.13;;;;;;;9.82;79.02;102162.63;6225767;28;20256;-62
2021/11/06 12:00:35;;;;;;;26.57;23.97;;;;;;;9.92;78.63;102159.28;6232293;28;20213;-63
2021/11/06 12:04:00;;;;;;;26.77;23.73;;;;;;;9.93;78.76;102166.25;6250144;28;21134;-64
2021/11/06 12:07:26;;;;;;;28.07;23.30;;;;;;;9.94;78.58;102157.59;6260349;28;20257;-62
2021/11/06 12:10:55;;;;;;;26.50;22.77;;;;;;;9.92;77.86;102156.69;6262950;28;20197;-63
2021/11/06 12:14:20;;;;;;;28.20;25.13;;;;;;;10.08;77.98;102154.31;6261481;28;20334;-63
2021/11/06 12:17:41;;;;;;;25.67;22.87;;;;;;;10.30;76.74;102151.19;6257074;28;20700;-63
2021/11/06 12:21:31;;;;;;;26.93;24.07;;;;;;;10.13;77.32;102163.94;6237831;28;20209;-64
2021/11/06 12:25:12;;;;;;;22.00;19.73;;;;;;;9.95;77.53;102158.50;6242228;28;20212;-63
2021/11/06 12:28:33;;;;;;;26.40;23.63;;;;;;;9.85;78.21;102153.13;6232921;28;20233;-64
2021/11/06 12:31:55;;;;;;;27.47;23.33;;;;;;;9.98;77.86;102143.78;6236834;28;20232;-62
2021/11/06 12:35:23;;;;;;;25.63;23.00;;;;;;;9.81;78.31;102142.66;6235111;28;20205;-63
2021/11/06 12:38:45;;;;;;;23.10;20.37;;;;;;;10.24;76.49;102127.66;6226468;28;20232;-64
2021/11/06 12:42:13;;;;;;;22.87;20.50;;;;;;;9.91;78.04;102130.66;6226586;28;20254;-63
2021/11/06 12:45:33;;;;;;;23.47;21.17;;;;;;;10.17;76.83;102129.28;6226285;28;20569;-63
2021/11/06 12:48:57;;;;;;;20.73;18.83;;;;;;;9.94;77.53;102128.09;6214113;28;20220;-62
2021/11/06 12:52:20;;;;;;;18.80;16.97;;;;;;;9.80;78.61;102120.97;6216115;28;20293;-63
2021/11/06 12:55:42;;;;;;;24.13;21.57;;;;;;;10.06;78.10;102133.47;6217221;28;20696;-63
2021/11/06 12:59:06;;;;;;;21.57;19.37;;;;;;;10.07;77.85;102131.75;6218852;28;20466;-62
2021/11/06 13:02:47;;;;;;;24.13;20.83;;;;;;;10.04;78.22;102111.75;6212813;28;20221;-62
2021/11/06 13:06:24;;;;;;;22.70;20.33;;;;;;;10.27;76.98;102098.16;6215290;28;20232;-62
2021/11/06 13:09:45;;;;;;;23.70;21.13;;;;;;;9.95;78.49;102102.09;6220276;28;20213;-63
2021/11/06 13:13:10;;;;;;;22.83;20.53;;;;;;;10.37;76.82;102087.03;6218872;28;20260;-63
2021/11/06 13:16:31;;;;;;;22.30;19.70;;;;;;;10.08;77.79;102091.84;6216055;28;20252;-64
2021/11/06 13:19:55;;;;;;;21.90;19.77;;;;;;;10.02;78.04;102075.31;6219755;28;20420;-63
2021/11/06 13:23:16;;;;;;;24.17;19.97;;;;;;;10.23;77.05;102074.69;6239435;28;20236;-64
2021/11/06 13:26:37;;;;;;;23.03;20.30;;;;;;;9.95;78.52;102070.00;6243981;28;20764;-63
2021/11/06 13:30:18;;;;;;;22.33;19.27;;;;;;;10.25;76.68;102070.41;6240467;28;20213;-64
2021/11/06 13:33:42;;;;;;;23.83;21.43;;;;;;;10.14;77.87;102072.00;6227363;28;20687;-63
2021/11/06 13:37:14;;;;;;;21.27;19.13;;;;;;;10.48;76.56;102064.59;6233132;28;20260;-62
2021/11/06 13:40:42;;;;;;;22.17;20.10;;;;;;;10.21;77.04;102062.50;6223498;28;20209;-63
2021/11/06 13:44:06;;;;;;;20.53;18.30;;;;;;;10.13;76.83;102058.94;6219237;28;20247;-63
2021/11/06 13:47:31;;;;;;;24.80;22.23;;;;;;;10.19;77.27;102049.47;6217798;28;20242;-63
2021/11/06 13:50:52;;;;;;;25.37;20.07;;;;;;;10.02;77.69;102062.31;6215594;28;20281;-62
2021/11/06 13:54:16;;;;;;;22.80;20.43;;;;;;;10.22;77.14;102023.50;6246686;28;20200;-64
2021/11/06 13:57:37;;;;;;;21.50;19.30;;;;;;;10.19;76.70;102015.63;6241162;28;20224;-62
2021/11/06 14:00:58;;;;;;;24.07;20.30;;;;;;;10.33;76.69;102015.84;6239452;28;20204;-63
2021/11/06 14:04:21;;;;;;;21.67;19.43;;;;;;;10.48;76.13;102006.44;6229991;28;20202;-62
2021/11/06 14:07:46;;;;;;;23.10;19.63;;;;;;;10.24;77.08;102026.13;6220433;28;20501;-61
2021/11/06 14:11:07;;;;;;;19.57;17.63;;;;;;;10.62;75.00;102002.22;6212938;28;20233;-62
2021/11/06 14:14:49;;;;;;;20.13;18.07;;;;;;;10.07;76.62;102007.69;6213973;28;20749;-62
2021/11/06 14:18:13;;;;;;;23.30;20.10;;;;;;;10.38;75.98;102014.16;6214373;28;20599;-63
2021/11/06 14:21:40;;;;;;;19.43;16.83;;;;;;;10.02;75.45;102004.16;6214110;28;20315;-64
2021/11/06 14:25:05;;;;;;;19.77;17.73;;;;;;;10.30;76.00;101999.28;6215024;28;20205;-63
2021/11/06 14:28:26;;;;;;;20.10;17.10;;;;;;;10.10;76.43;102002.53;6223595;28;20225;-63
2021/11/06 14:31:53;;;;;;;20.97;18.83;;;;;;;10.29;76.21;102006.19;6222138;28;20247;-63
2021/11/06 14:35:14;;;;;;;19.87;17.77;;;;;;;10.13;76.41;102001.69;6214735;28;20213;-64
2021/11/06 14:38:52;;;;;;;24.13;18.83;;;;;;;10.13;76.40;101994.75;6212761;28;20233;-63
2021/11/06 14:42:16;;;;;;;24.53;19.60;;;;;;;10.49;75.29;101980.41;6219127;28;20245;-62
2021/11/06 14:45:37;;;;;;;18.00;16.13;;;;;;;10.21;75.90;101987.03;6214941;28;20547;-63
2021/11/06 14:48:58;;;;;;;19.77;17.80;;;;;;;10.01;76.79;101972.06;6210873;28;20265;-63
2021/11/06 14:52:25;;;;;;;19.73;17.70;;;;;;;10.22;75.82;101967.94;6210672;28;20260;-64
2021/11/06 14:55:53;;;;;;;17.73;16.03;;;;;;;10.17;75.66;101969.63;6214752;28;20198;-64
2021/11/06 14:59:14;;;;;;;19.27;17.33;;;;;;;9.93;76.58;101978.91;6212018;28;21659;-64
2021/11/06 15:02:36;;;;;;;16.73;13.73;;;;;;;10.03;76.96;101965.13;6211475;28;20233;-71
2021/11/06 15:05:57;;;;;;;21.43;16.90;;;;;;;10.30;75.92;101955.03;6209956;28;20221;-71
2021/11/06 15:09:18;;;;;;;17.57;15.63;;;;;;;10.29;76.35;101954.13;6229450;28;20239;-71
2021/11/06 15:12:40;;;;;;;19.37;17.40;;;;;;;10.52;74.95;101958.72;6228454;28;20358;-71
2021/11/06 15:16:01;;;;;;;16.10;14.40;;;;;;;10.38;76.21;101956.84;6224821;28;21511;-63
2021/11/06 15:19:22;;;;;;;16.50;14.60;;;;;;;9.99;76.75;101955.53;6195997;28;20206;-65
2021/11/06 15:22:43;;;;;;;15.13;13.63;;;;;;;10.14;76.08;101939.25;6223234;28;20566;-65
2021/11/06 15:26:04;;;;;;;18.50;14.20;;;;;;;9.90;76.63;101942.41;6232982;28;20311;-63
2021/11/06 15:29:27;;;;;;;14.80;13.30;;;;;;;9.80;76.13;101948.38;6202719;28;20205;-63
2021/11/06 15:32:48;;;;;;;15.80;14.20;;;;;;;9.89;76.41;101938.09;6224936;28;20256;-63
2021/11/06 15:36:10;;;;;;;28.97;15.03;;;;;;;9.95;76.18;101932.09;6242720;28;20561;-62
2021/11/06 15:39:30;;;;;;;14.93;13.17;;;;;;;9.76;76.94;101923.19;6243061;28;20198;-62
2021/11/06 15:42:51;;;;;;;16.10;12.47;;;;;;;10.16;75.20;101923.66;6242122;28;20244;-62